createdAt,value
2018-10-17T11:47:08.898Z,90.00
2018-10-17T11:49:37.789Z,84.00
2018-10-17T11:52:06.661Z,83.70
2018-10-17T11:54:35.548Z,83.70
2018-10-17T11:57:04.628Z,84.00
2018-10-17T11:59:33.511Z,83.80
2018-10-17T12:02:02.292Z,83.60
2018-10-17T12:04:31.282Z,83.50
2018-10-17T12:07:00.017Z,83.50
2018-10-17T12:09:28.877Z,83.40
2018-10-17T12:11:57.780Z,83.20
2018-10-17T12:14:26.611Z,83.20
2018-10-17T12:16:55.459Z,83.30
2018-10-17T12:19:24.349Z,83.40
2018-10-17T12:21:53.193Z,83.20
2018-10-17T12:24:22.164Z,83.20
2018-10-17T12:26:51.115Z,83.10
2018-10-17T12:29:20.015Z,83.10
2018-10-17T12:31:48.865Z,83.00
2018-10-17T12:34:17.757Z,83.10
2018-10-17T12:36:47.242Z,82.60
2018-10-17T12:39:16.166Z,82.60
2018-10-17T12:41:45.219Z,82.10
2018-10-17T12:46:42.534Z,82.00
2018-10-17T12:49:11.457Z,81.70
2018-10-17T12:51:40.268Z,81.60
2018-10-17T12:54:09.701Z,81.60
2018-10-17T12:56:38.611Z,81.50
2018-10-17T12:59:07.511Z,81.10
2018-10-17T13:01:36.475Z,81.20
2018-10-17T13:04:05.428Z,80.70
2018-10-17T13:06:34.311Z,80.50
2018-10-17T13:09:04.839Z,80.40
2018-10-17T13:11:33.805Z,80.30
2018-10-17T13:14:02.647Z,79.90
2018-10-17T13:16:31.548Z,79.00
2018-10-17T13:19:00.410Z,79.30
2018-10-17T13:21:29.438Z,78.90
2018-10-17T13:23:58.590Z,79.20
2018-10-17T13:26:27.472Z,79.00
2018-10-17T13:28:56.518Z,79.00
2018-10-17T13:31:25.302Z,79.10
2018-10-17T13:33:54.192Z,79.30
2018-10-17T13:36:23.092Z,79.60
2018-10-17T14:19:01.825Z,79.70
2018-10-17T14:21:30.652Z,78.80
2018-10-17T14:23:59.737Z,78.40
2018-10-17T14:26:28.622Z,79.10
2018-10-17T14:28:57.485Z,78.50
2018-10-17T14:31:26.485Z,78.10
2018-10-17T15:13:34.168Z,77.70
2018-10-17T15:16:03.089Z,75.30
2018-10-17T15:18:31.916Z,76.40
2018-10-17T15:21:00.842Z,76.30
2018-10-17T15:23:29.628Z,76.50
2018-10-17T15:25:58.506Z,76.40
2018-10-17T15:28:27.363Z,77.10
2018-10-17T17:29:44.659Z,78.30
2018-10-17T17:32:13.618Z,80.60
2018-10-17T17:34:43.111Z,80.80
2018-10-17T17:37:12.078Z,81.50
2018-10-17T17:39:41.188Z,80.70
2018-10-17T17:42:10.084Z,80.70
2018-10-17T17:44:39.079Z,80.80
2018-10-17T17:47:08.051Z,80.90
2018-10-17T17:49:36.925Z,80.90
2018-10-17T17:52:06.067Z,81.20
2018-10-17T17:54:34.989Z,81.20
2018-10-17T17:57:04.071Z,81.00
2018-10-17T17:59:33.055Z,81.40
2018-10-17T18:02:02.007Z,81.70
2018-10-17T18:04:31.947Z,81.60
2018-10-17T18:07:00.938Z,81.60
2018-10-17T18:09:29.850Z,81.40
2018-10-17T18:11:59.346Z,81.50
2018-10-17T18:14:28.593Z,80.80
2018-10-17T18:16:57.397Z,80.90
2018-10-17T18:19:26.305Z,80.90
2018-10-17T18:21:55.195Z,81.00
2018-10-17T18:24:24.037Z,81.40
2018-10-17T18:26:52.912Z,81.40
2018-10-17T18:29:21.821Z,81.60
2018-10-17T18:31:50.826Z,81.80
2018-10-17T18:34:19.821Z,81.90
2018-10-17T18:36:48.598Z,82.10
2018-10-17T18:39:18.184Z,82.20
2018-10-17T18:41:47.104Z,82.10
2018-10-17T18:44:15.953Z,82.10
2018-10-17T18:46:44.797Z,82.30
2018-10-17T18:49:13.657Z,82.40
2018-10-17T18:51:43.062Z,82.50
2018-10-17T18:54:11.969Z,82.60
2018-10-17T18:56:40.811Z,82.80
2018-10-17T18:59:09.630Z,82.80
2018-10-17T19:01:38.740Z,82.80
2018-10-17T19:04:07.559Z,82.60
2018-10-17T19:06:36.437Z,83.10
2018-10-17T19:09:09.531Z,82.30
2018-10-17T19:11:38.293Z,82.60
2018-10-17T19:14:07.374Z,82.30
2018-10-17T19:16:37.133Z,82.60
2018-10-17T19:19:06.263Z,82.40
2018-10-17T19:21:35.127Z,82.30
2018-10-17T19:24:04.161Z,82.30
2018-10-17T19:26:33.019Z,82.20
2018-10-17T19:29:01.901Z,82.00
2018-10-17T19:31:30.826Z,82.10
2018-10-17T19:33:59.714Z,82.30
2018-10-17T19:36:28.652Z,81.70
2018-10-17T19:38:57.577Z,81.70
2018-10-17T19:41:27.517Z,81.70
2018-10-17T19:43:56.381Z,81.90
2018-10-17T19:46:25.280Z,82.10
2018-10-17T19:48:54.164Z,82.50
2018-10-17T19:51:23.017Z,82.70
2018-10-17T19:53:53.917Z,82.90
2018-10-17T19:56:23.249Z,83.10
2018-10-17T19:58:52.314Z,83.00
2018-10-17T20:01:21.174Z,83.20
2018-10-17T20:03:49.997Z,83.40
2018-10-17T20:06:18.821Z,83.50
2018-10-17T20:08:47.714Z,83.20
2018-10-17T20:11:16.568Z,83.10
2018-10-17T20:13:45.516Z,83.20
2018-10-17T20:16:14.668Z,83.10
2018-10-17T20:18:43.722Z,82.90
2018-10-17T20:21:12.820Z,82.80
2018-10-17T20:23:41.692Z,82.70
2018-10-17T20:26:11.251Z,82.70
2018-10-17T20:28:40.150Z,82.60
2018-10-17T20:31:09.020Z,82.50
2018-10-17T20:33:37.903Z,82.60
2018-10-17T20:36:06.758Z,83.00
2018-10-17T20:38:35.625Z,83.40
2018-10-17T20:41:04.600Z,83.70
2018-10-17T20:43:33.434Z,84.50
2018-10-17T20:46:02.313Z,85.60
2018-10-17T20:48:31.149Z,85.20
2018-10-17T20:51:00.036Z,85.60
2018-10-17T20:53:28.865Z,85.40
2018-10-17T20:55:57.788Z,85.30
2018-10-17T20:58:26.991Z,85.20
2018-10-17T21:00:55.752Z,85.00
2018-10-17T21:03:24.590Z,84.60
2018-10-17T21:05:53.439Z,85.10
2018-10-17T21:08:22.268Z,85.50
2018-10-17T21:10:51.101Z,85.80
2018-10-17T21:13:19.947Z,85.90
2018-10-17T21:15:48.778Z,86.00
2018-10-17T21:18:17.699Z,86.50
2018-10-17T21:20:46.504Z,87.00
2018-10-17T21:23:15.621Z,87.10
2018-10-17T21:25:44.730Z,87.10
2018-10-17T21:28:14.067Z,87.60
2018-10-17T21:30:43.068Z,87.90
2018-10-17T21:33:11.963Z,87.80
2018-10-17T21:35:41.010Z,87.80
2018-10-17T21:38:09.972Z,87.70
2018-10-17T21:40:38.771Z,87.70
2018-10-17T21:43:07.693Z,88.40
2018-10-17T21:45:36.530Z,87.40
2018-10-17T21:48:05.368Z,87.20
2018-10-17T21:50:34.208Z,87.40
2018-10-17T21:53:03.072Z,87.60
2018-10-17T21:55:31.932Z,87.90
2018-10-17T21:58:00.772Z,88.20
2018-10-17T22:00:29.817Z,88.00
2018-10-17T22:02:58.752Z,87.80
2018-10-17T22:05:27.708Z,87.60
2018-10-17T22:07:56.784Z,87.30
2018-10-17T22:10:25.572Z,88.00
2018-10-17T22:12:54.417Z,87.00
2018-10-17T22:15:23.244Z,87.10
2018-10-17T22:17:52.084Z,86.90
2018-10-17T22:20:21.146Z,87.10
2018-10-17T22:22:49.814Z,87.10
2018-10-17T22:25:18.675Z,87.10
2018-10-17T22:27:47.527Z,86.90
2018-10-17T22:30:16.353Z,86.90
2018-10-17T22:32:45.351Z,86.80
2018-10-17T22:35:14.181Z,87.00
2018-10-17T22:37:43.074Z,87.00
2018-10-17T22:40:11.902Z,87.20
2018-10-17T22:42:40.796Z,87.20
2018-10-17T22:45:09.636Z,87.20
2018-10-17T22:47:38.503Z,87.10
2018-10-17T22:50:07.787Z,87.10
2018-10-17T22:52:36.562Z,87.10
2018-10-17T22:55:05.485Z,87.50
2018-10-17T22:57:34.461Z,87.70
2018-10-17T23:00:03.658Z,88.10
2018-10-17T23:02:32.578Z,88.40
2018-10-17T23:05:01.429Z,88.60
2018-10-17T23:07:30.320Z,88.60
2018-10-17T23:09:59.164Z,88.70
2018-10-17T23:12:28.023Z,88.70
2018-10-17T23:14:56.852Z,89.00
2018-10-17T23:17:25.741Z,88.90
2018-10-17T23:19:54.598Z,88.70
2018-10-17T23:22:23.409Z,89.00
2018-10-17T23:24:52.217Z,89.20
2018-10-17T23:27:21.109Z,89.40
2018-10-17T23:29:49.950Z,89.10
2018-10-17T23:32:19.048Z,89.10
2018-10-17T23:34:47.801Z,89.70
2018-10-17T23:37:16.679Z,88.80
2018-10-17T23:39:45.506Z,89.20
2018-10-17T23:42:14.466Z,89.30
2018-10-17T23:44:43.268Z,89.40
2018-10-17T23:47:12.218Z,89.50
2018-10-17T23:49:41.110Z,89.30
2018-10-17T23:52:10.034Z,89.40
2018-10-17T23:54:39.014Z,89.90
